Time;durP1;ratioP1;P1;durP2;ratioP2;P2;SDS_P1;SDS_P2;PMS_P1;PMS_P2;Temp;Humidity;BMP_temperature;BMP_pressure;BME280_temperature;BME280_humidity;BME280_pressure;Samples;Min_cycle;Max_cycle;Signal;HPM_P1;HPM_P2
2024/01/29 00:01:59;;;;;;;16.38;5.22;;;;;;;;;;5031784;28;20026;-57
2024/01/29 00:04:24;;;;;;;15.53;4.80;;;;;;;;;;5031620;28;20033;-57
2024/01/29 00:06:51;;;;;;;20.00;6.07;;;;;;;;;;5026377;28;20026;-58
2024/01/29 00:09:17;;;;;;;16.35;5.53;;;;;;;;;;5022777;28;20017;-57
2024/01/29 00:11:43;;;;;;;16.80;5.45;;;;;;;;;;5022731;28;20030;-56
2024/01/29 00:14:09;;;;;;;12.63;4.78;;;;;;;;;;5026556;28;20037;-57
2024/01/29 00:16:34;;;;;;;17.75;5.20;;;;;;;;;;5030118;28;20057;-56
2024/01/29 00:18:59;;;;;;;18.60;5.27;;;;;;;;;;5027232;28;20052;-55
2024/01/29 00:21:24;;;;;;;15.85;5.07;;;;;;;;;;5020638;28;20461;-57
2024/01/29 00:23:50;;;;;;;13.77;5.03;;;;;;;;;;5015253;28;20092;-57
2024/01/29 00:26:15;;;;;;;15.48;4.93;;;;;;;;;;5026035;28;20041;-56
2024/01/29 00:28:40;;;;;;;14.93;5.20;;;;;;;;;;5031039;28;20546;-56
2024/01/29 00:31:07;;;;;;;15.82;4.63;;;;;;;;;;5033905;28;20026;-56
2024/01/29 00:33:32;;;;;;;14.80;4.85;;;;;;;;;;5033717;28;20036;-56
2024/01/29 00:35:57;;;;;;;15.35;5.03;;;;;;;;;;5018956;28;20109;-56
2024/01/29 00:38:22;;;;;;;13.50;4.90;;;;;;;;;;5016518;28;20030;-56
2024/01/29 00:40:47;;;;;;;13.65;4.80;;;;;;;;;;5030988;28;20500;-58
2024/01/29 00:43:12;;;;;;;14.73;4.88;;;;;;;;;;5032702;28;20044;-57
2024/01/29 00:45:37;;;;;;;14.82;5.07;;;;;;;;;;5014641;28;20033;-55
2024/01/29 00:48:03;;;;;;;13.48;4.72;;;;;;;;;;5033195;28;20450;-56
2024/01/29 00:50:28;;;;;;;13.30;4.60;;;;;;;;;;5032334;28;20022;-56
2024/01/29 00:52:53;;;;;;;13.00;4.67;;;;;;;;;;5013421;28;20492;-57
2024/01/29 00:55:18;;;;;;;13.87;4.80;;;;;;;;;;5022360;28;20034;-55
2024/01/29 00:57:43;;;;;;;13.65;5.05;;;;;;;;;;5021180;28;20075;-56
2024/01/29 01:00:09;;;;;;;15.35;4.63;;;;;;;;;;5032340;28;20137;-56
2024/01/29 01:02:34;;;;;;;17.10;4.75;;;;;;;;;;5031366;28;20038;-56
2024/01/29 01:05:00;;;;;;;14.02;4.90;;;;;;;;;;5032585;28;20029;-57
2024/01/29 01:07:25;;;;;;;16.30;4.87;;;;;;;;;;5020651;28;20093;-58
2024/01/29 01:09:50;;;;;;;12.57;4.60;;;;;;;;;;5026088;28;20473;-56
2024/01/29 01:12:15;;;;;;;17.40;5.13;;;;;;;;;;5028209;28;20120;-57
2024/01/29 01:14:40;;;;;;;15.93;5.20;;;;;;;;;;5031829;28;20041;-56
2024/01/29 01:17:05;;;;;;;14.18;5.03;;;;;;;;;;5021926;28;20029;-57
2024/01/29 01:19:31;;;;;;;15.93;4.88;;;;;;;;;;5031047;28;20010;-57
2024/01/29 01:21:56;;;;;;;12.07;4.33;;;;;;;;;;5017888;28;20433;-57
2024/01/29 01:24:21;;;;;;;12.70;4.60;;;;;;;;;;5026327;28;20060;-57
2024/01/29 01:26:46;;;;;;;15.02;4.90;;;;;;;;;;5032009;28;20060;-58
2024/01/29 01:29:11;;;;;;;14.37;4.63;;;;;;;;;;5032747;28;20029;-57
2024/01/29 01:31:36;;;;;;;15.77;4.73;;;;;;;;;;5033163;28;20555;-56
2024/01/29 01:34:02;;;;;;;15.97;4.37;;;;;;;;;;5015215;28;20426;-57
2024/01/29 01:36:27;;;;;;;13.07;4.90;;;;;;;;;;5014850;28;20537;-56
2024/01/29 01:38:52;;;;;;;14.65;5.00;;;;;;;;;;5029112;28;20055;-57
2024/01/29 01:41:17;;;;;;;14.23;4.25;;;;;;;;;;5030015;28;20269;-57
2024/01/29 01:43:42;;;;;;;17.58;4.88;;;;;;;;;;5018202;28;20108;-57
2024/01/29 01:46:23;;;;;;;15.50;4.40;;;;;;;;;;5024846;28;20032;-56
2024/01/29 01:48:49;;;;;;;15.70;5.15;;;;;;;;;;5014684;28;20088;-57
2024/01/29 01:51:14;;;;;;;14.70;4.60;;;;;;;;;;5019191;28;20609;-56
2024/01/29 01:53:40;;;;;;;13.10;4.50;;;;;;;;;;5025622;28;20058;-56
2024/01/29 01:56:06;;;;;;;16.23;5.20;;;;;;;;;;5019511;28;20448;-57
2024/01/29 01:58:32;;;;;;;13.73;4.60;;;;;;;;;;5034207;28;20044;-57
2024/01/29 02:00:59;;;;;;;15.82;5.35;;;;;;;;;;5039853;28;20049;-57
2024/01/29 02:03:27;;;;;;;16.17;4.88;;;;;;;;;;5031769;28;20017;-58
2024/01/29 02:05:52;;;;;;;14.35;4.55;;;;;;;;;;5027760;28;20385;-57
2024/01/29 02:08:17;;;;;;;11.90;4.93;;;;;;;;;;5025420;28;20033;-57
2024/01/29 02:10:43;;;;;;;14.57;4.43;;;;;;;;;;5029735;28;20047;-56
2024/01/29 02:13:11;;;;;;;17.33;4.55;;;;;;;;;;5030559;28;20025;-57
2024/01/29 02:15:36;;;;;;;16.52;4.78;;;;;;;;;;5028412;28;20033;-55
2024/01/29 02:18:01;;;;;;;17.27;4.68;;;;;;;;;;5024272;28;20443;-56
2024/01/29 02:20:27;;;;;;;12.43;4.80;;;;;;;;;;5029566;28;20033;-57
2024/01/29 02:22:52;;;;;;;12.57;4.70;;;;;;;;;;5029884;28;20100;-56
2024/01/29 02:25:17;;;;;;;11.93;4.10;;;;;;;;;;5029591;28;20028;-56
2024/01/29 02:27:42;;;;;;;14.45;4.82;;;;;;;;;;5012851;28;20018;-58
2024/01/29 02:30:07;;;;;;;14.68;5.25;;;;;;;;;;5028557;28;20532;-57
2024/01/29 02:32:32;;;;;;;15.43;5.13;;;;;;;;;;5031619;28;20027;-56
2024/01/29 02:34:58;;;;;;;17.33;5.28;;;;;;;;;;5031029;28;20545;-56
2024/01/29 02:37:23;;;;;;;12.10;4.90;;;;;;;;;;5026851;28;20374;-56
2024/01/29 02:39:51;;;;;;;13.15;4.78;;;;;;;;;;5030966;28;20500;-57
2024/01/29 02:42:17;;;;;;;14.88;5.13;;;;;;;;;;5029369;28;20390;-56
2024/01/29 02:44:42;;;;;;;15.18;5.07;;;;;;;;;;5021532;28;20056;-57
2024/01/29 02:47:07;;;;;;;11.50;5.10;;;;;;;;;;5016103;28;20041;-58
2024/01/29 02:49:33;;;;;;;11.97;4.50;;;;;;;;;;5029845;28;20025;-56
2024/01/29 02:51:58;;;;;;;13.38;5.40;;;;;;;;;;5020961;28;20022;-56
2024/01/29 02:54:23;;;;;;;13.27;4.85;;;;;;;;;;5023441;28;20483;-57
2024/01/29 02:56:48;;;;;;;18.10;5.18;;;;;;;;;;5011114;28;20026;-56
2024/01/29 02:59:14;;;;;;;13.50;5.68;;;;;;;;;;5015011;28;20096;-56
2024/01/29 03:01:39;;;;;;;16.83;4.82;;;;;;;;;;5027168;28;20067;-56
2024/01/29 03:04:04;;;;;;;13.25;4.75;;;;;;;;;;5030328;28;20037;-56
2024/01/29 03:06:29;;;;;;;17.50;5.68;;;;;;;;;;5028260;28;20029;-57
2024/01/29 03:08:54;;;;;;;17.63;5.67;;;;;;;;;;5028532;28;20029;-55
2024/01/29 03:11:19;;;;;;;14.87;5.77;;;;;;;;;;5013150;28;20080;-57
2024/01/29 03:13:46;;;;;;;14.93;5.57;;;;;;;;;;5010702;28;20021;-57
2024/01/29 03:16:11;;;;;;;15.45;5.88;;;;;;;;;;5016609;28;20056;-57
2024/01/29 03:18:36;;;;;;;13.27;5.20;;;;;;;;;;5023750;28;20044;-58
2024/01/29 03:21:02;;;;;;;16.05;5.88;;;;;;;;;;5027615;28;20021;-56
2024/01/29 03:23:27;;;;;;;12.67;4.87;;;;;;;;;;5030101;28;20030;-57
2024/01/29 03:25:52;;;;;;;13.20;5.37;;;;;;;;;;5024938;28;20026;-57
2024/01/29 03:28:17;;;;;;;15.23;5.85;;;;;;;;;;5012072;28;20032;-57
2024/01/29 03:30:42;;;;;;;15.25;5.70;;;;;;;;;;5028659;28;20017;-57
2024/01/29 03:33:07;;;;;;;14.60;5.57;;;;;;;;;;5027691;28;20065;-56
2024/01/29 03:35:33;;;;;;;17.83;5.40;;;;;;;;;;5029073;28;20024;-56
2024/01/29 03:37:58;;;;;;;15.10;6.00;;;;;;;;;;5014731;28;20080;-57
2024/01/29 03:40:23;;;;;;;13.30;5.18;;;;;;;;;;5018051;28;20040;-56
2024/01/29 03:42:48;;;;;;;14.98;5.30;;;;;;;;;;5028700;28;20037;-57
2024/01/29 03:45:14;;;;;;;14.50;5.50;;;;;;;;;;5029470;28;20029;-56
2024/01/29 03:47:39;;;;;;;14.00;5.20;;;;;;;;;;5028179;28;20381;-57
2024/01/29 03:50:05;;;;;;;17.43;5.77;;;;;;;;;;5026368;28;20456;-58
2024/01/29 03:52:30;;;;;;;14.82;4.97;;;;;;;;;;5030223;28;20359;-56
2024/01/29 03:54:56;;;;;;;15.00;5.57;;;;;;;;;;5018373;28;20029;-57
2024/01/29 03:57:21;;;;;;;17.80;5.97;;;;;;;;;;5024399;28;20041;-59
2024/01/29 03:59:46;;;;;;;14.38;5.45;;;;;;;;;;5023017;28;20034;-57
2024/01/29 04:02:11;;;;;;;16.17;5.70;;;;;;;;;;5017545;28;20037;-57
2024/01/29 04:04:36;;;;;;;15.52;5.30;;;;;;;;;;5034554;28;20029;-58
2024/01/29 04:07:01;;;;;;;14.18;4.95;;;;;;;;;;5034462;28;20076;-56
2024/01/29 04:09:27;;;;;;;13.67;5.40;;;;;;;;;;5032884;28;20162;-56
2024/01/29 04:11:52;;;;;;;13.87;5.40;;;;;;;;;;5027943;28;20101;-57
2024/01/29 04:14:17;;;;;;;19.53;5.80;;;;;;;;;;5025923;28;20022;-57
2024/01/29 04:16:46;;;;;;;13.38;5.57;;;;;;;;;;5023674;28;20035;-57
2024/01/29 04:19:11;;;;;;;17.00;5.10;;;;;;;;;;5031618;28;20022;-56
2024/01/29 04:21:40;;;;;;;12.90;5.15;;;;;;;;;;5034460;28;20027;-55
2024/01/29 04:24:05;;;;;;;15.75;5.97;;;;;;;;;;5033782;28;20037;-56
2024/01/29 04:26:30;;;;;;;14.43;5.68;;;;;;;;;;5029422;28;20076;-58
2024/01/29 04:28:55;;;;;;;17.83;5.75;;;;;;;;;;5033274;28;20041;-58
2024/01/29 04:31:22;;;;;;;14.75;5.10;;;;;;;;;;5025664;28;20462;-58
2024/01/29 04:33:47;;;;;;;13.63;4.75;;;;;;;;;;5032460;28;20444;-56
2024/01/29 04:36:14;;;;;;;11.80;5.07;;;;;;;;;;5033851;28;20104;-56
2024/01/29 04:38:39;;;;;;;13.23;5.70;;;;;;;;;;5033590;28;20501;-57
2024/01/29 04:41:04;;;;;;;16.13;5.55;;;;;;;;;;5027088;28;20021;-58
2024/01/29 04:43:29;;;;;;;14.57;5.43;;;;;;;;;;5033212;28;20110;-56
2024/01/29 04:45:55;;;;;;;14.10;4.80;;;;;;;;;;5033387;28;20041;-57
2024/01/29 04:48:21;;;;;;;14.88;5.38;;;;;;;;;;5033400;28;20030;-56
2024/01/29 04:50:46;;;;;;;13.63;5.03;;;;;;;;;;5022344;28;20450;-56
2024/01/29 04:53:12;;;;;;;12.95;5.05;;;;;;;;;;5022149;28;20101;-56
2024/01/29 04:55:37;;;;;;;16.88;5.80;;;;;;;;;;5032623;28;20469;-57
2024/01/29 04:58:02;;;;;;;13.05;5.50;;;;;;;;;;5033830;28;20057;-57
2024/01/29 05:00:27;;;;;;;12.53;5.30;;;;;;;;;;5032601;28;20523;-57
2024/01/29 05:02:52;;;;;;;14.32;4.93;;;;;;;;;;5030866;28;20427;-56
2024/01/29 05:05:18;;;;;;;13.60;4.80;;;;;;;;;;5033724;28;20466;-57
2024/01/29 05:07:43;;;;;;;14.38;5.97;;;;;;;;;;5033372;28;20113;-57
2024/01/29 05:10:08;;;;;;;13.27;5.50;;;;;;;;;;5031077;28;20041;-56
2024/01/29 05:12:33;;;;;;;14.83;5.23;;;;;;;;;;5033095;28;20455;-56
2024/01/29 05:14:58;;;;;;;15.50;5.40;;;;;;;;;;5032014;28;20029;-56
2024/01/29 05:17:23;;;;;;;15.75;5.38;;;;;;;;;;5033204;28;20021;-56
2024/01/29 05:19:49;;;;;;;15.25;5.47;;;;;;;;;;5025104;28;20461;-56
2024/01/29 05:22:14;;;;;;;14.60;5.30;;;;;;;;;;5029452;28;20045;-56
2024/01/29 05:24:39;;;;;;;15.27;5.17;;;;;;;;;;5032112;28;20041;-56
2024/01/29 05:27:04;;;;;;;18.83;4.87;;;;;;;;;;5027690;28;20025;-58
2024/01/29 05:29:30;;;;;;;11.48;5.18;;;;;;;;;;5024562;28;20079;-57
2024/01/29 05:31:55;;;;;;;14.23;5.43;;;;;;;;;;5027233;28;20056;-56
2024/01/29 05:34:20;;;;;;;15.05;5.25;;;;;;;;;;5027895;28;20089;-56
2024/01/29 05:36:45;;;;;;;15.25;5.88;;;;;;;;;;5030429;28;20551;-56
2024/01/29 05:39:11;;;;;;;15.30;6.07;;;;;;;;;;5030194;28;20094;-57
2024/01/29 05:41:36;;;;;;;15.30;5.97;;;;;;;;;;5024567;28;20075;-57
2024/01/29 05:44:01;;;;;;;16.35;4.97;;;;;;;;;;5024723;28;20039;-57
2024/01/29 05:46:26;;;;;;;12.65;5.43;;;;;;;;;;5028679;28;20041;-56
2024/01/29 05:48:51;;;;;;;13.20;5.00;;;;;;;;;;5028192;28;20428;-56
2024/01/29 05:51:16;;;;;;;16.50;5.32;;;;;;;;;;5028296;28;20057;-58
2024/01/29 05:53:41;;;;;;;14.65;5.20;;;;;;;;;;5015988;28;20033;-56
2024/01/29 05:56:07;;;;;;;15.30;5.22;;;;;;;;;;5023643;28;20026;-56
2024/01/29 05:58:34;;;;;;;14.07;5.10;;;;;;;;;;5034072;28;20043;-57
2024/01/29 06:00:59;;;;;;;15.23;5.38;;;;;;;;;;5037374;28;20495;-58
2024/01/29 06:03:25;;;;;;;12.57;5.27;;;;;;;;;;5029296;28;20089;-57
2024/01/29 06:05:50;;;;;;;12.73;4.93;;;;;;;;;;5035851;28;20112;-56
2024/01/29 06:08:15;;;;;;;15.23;5.27;;;;;;;;;;5022165;28;20067;-56
2024/01/29 06:10:40;;;;;;;15.25;4.93;;;;;;;;;;5027373;28;20025;-56
2024/01/29 06:13:05;;;;;;;13.50;5.55;;;;;;;;;;5028597;28;20049;-57
2024/01/29 06:15:31;;;;;;;20.03;5.37;;;;;;;;;;5028820;28;20024;-56
2024/01/29 06:17:56;;;;;;;16.33;5.77;;;;;;;;;;5027242;28;20022;-57
2024/01/29 06:20:21;;;;;;;15.65;6.70;;;;;;;;;;5029518;28;20032;-56
2024/01/29 06:22:46;;;;;;;13.43;4.93;;;;;;;;;;5031419;28;20017;-56
2024/01/29 06:25:11;;;;;;;15.10;5.50;;;;;;;;;;5030393;28;20044;-56
2024/01/29 06:27:37;;;;;;;12.73;5.10;;;;;;;;;;5030724;28;20104;-57
2024/01/29 06:30:03;;;;;;;15.00;5.93;;;;;;;;;;5031194;28;20052;-56
2024/01/29 06:32:28;;;;;;;16.20;6.10;;;;;;;;;;5032007;28;20058;-57
2024/01/29 06:34:56;;;;;;;13.55;5.00;;;;;;;;;;5031275;28;20041;-57
2024/01/29 06:37:22;;;;;;;12.40;4.80;;;;;;;;;;5031632;28;20028;-56
2024/01/29 06:39:47;;;;;;;14.37;5.57;;;;;;;;;;5029403;28;20100;-56
2024/01/29 06:42:12;;;;;;;17.83;5.72;;;;;;;;;;5029855;28;20034;-57
2024/01/29 06:44:37;;;;;;;11.48;5.30;;;;;;;;;;5029173;28;20020;-56
2024/01/29 06:47:02;;;;;;;17.80;5.97;;;;;;;;;;5035845;28;20029;-57
2024/01/29 06:49:30;;;;;;;15.93;5.68;;;;;;;;;;5030296;28;20535;-56
2024/01/29 06:51:55;;;;;;;17.83;5.40;;;;;;;;;;5012627;28;20045;-55
2024/01/29 06:54:20;;;;;;;15.33;5.10;;;;;;;;;;5024506;28;20397;-56
2024/01/29 06:56:46;;;;;;;14.27;5.57;;;;;;;;;;5029566;28;20021;-58
2024/01/29 06:59:11;;;;;;;15.68;5.57;;;;;;;;;;5021668;28;20037;-58
2024/01/29 07:01:37;;;;;;;14.20;5.82;;;;;;;;;;5024552;28;20669;-56
2024/01/29 07:04:02;;;;;;;15.05;6.10;;;;;;;;;;5031085;28;20501;-57
2024/01/29 07:06:27;;;;;;;17.70;6.13;;;;;;;;;;5021941;28;20057;-55
2024/01/29 07:08:52;;;;;;;16.50;5.60;;;;;;;;;;5029690;28;20021;-57
2024/01/29 07:11:17;;;;;;;14.68;5.82;;;;;;;;;;5027097;28;20025;-57
2024/01/29 07:13:42;;;;;;;13.73;6.38;;;;;;;;;;5030240;28;20048;-56
2024/01/29 07:16:08;;;;;;;16.38;6.22;;;;;;;;;;5028558;28;20482;-57
2024/01/29 07:18:33;;;;;;;18.00;5.97;;;;;;;;;;5020463;28;20049;-56
2024/01/29 07:20:58;;;;;;;15.43;5.85;;;;;;;;;;5030683;28;20631;-56
2024/01/29 07:23:23;;;;;;;17.85;6.22;;;;;;;;;;5029518;28;20021;-57
2024/01/29 07:25:49;;;;;;;15.45;5.80;;;;;;;;;;5026027;28;20055;-57
2024/01/29 07:28:14;;;;;;;13.73;5.97;;;;;;;;;;5031392;28;20048;-57
2024/01/29 07:30:39;;;;;;;13.63;5.63;;;;;;;;;;5027910;28;20095;-56
2024/01/29 07:33:04;;;;;;;16.02;6.18;;;;;;;;;;5032281;28;20493;-57
2024/01/29 07:35:29;;;;;;;15.38;6.38;;;;;;;;;;5030896;28;20022;-56
2024/01/29 07:37:54;;;;;;;12.20;5.10;;;;;;;;;;5036087;28;20060;-55
2024/01/29 07:40:20;;;;;;;15.93;5.95;;;;;;;;;;5026803;28;20029;-56
2024/01/29 07:42:49;;;;;;;14.48;5.88;;;;;;;;;;5033431;28;20029;-57
2024/01/29 07:45:14;;;;;;;14.23;5.90;;;;;;;;;;5033363;28;20048;-57
2024/01/29 07:47:40;;;;;;;15.00;5.70;;;;;;;;;;5027507;28;20014;-57
2024/01/29 07:50:05;;;;;;;14.10;6.00;;;;;;;;;;5031706;28;20036;-57
2024/01/29 07:52:30;;;;;;;16.57;6.33;;;;;;;;;;5034382;28;20017;-56
2024/01/29 07:54:55;;;;;;;15.03;5.93;;;;;;;;;;5033324;28;21050;-56
2024/01/29 07:57:20;;;;;;;17.67;6.10;;;;;;;;;;5033917;28;20071;-56
2024/01/29 07:59:46;;;;;;;14.60;5.65;;;;;;;;;;5024051;28;20030;-56
2024/01/29 08:02:11;;;;;;;13.90;5.55;;;;;;;;;;5038298;28;20036;-56
2024/01/29 08:04:36;;;;;;;14.47;5.20;;;;;;;;;;5043084;28;20037;-56
2024/01/29 08:07:01;;;;;;;14.50;5.70;;;;;;;;;;5045908;28;20463;-61
2024/01/29 08:09:26;;;;;;;12.67;5.67;;;;;;;;;;5037783;28;20022;-56
2024/01/29 08:11:52;;;;;;;15.02;5.38;;;;;;;;;;5034883;28;20504;-56
2024/01/29 08:14:17;;;;;;;15.63;5.90;;;;;;;;;;5033904;28;20033;-57
2024/01/29 08:16:43;;;;;;;15.70;5.20;;;;;;;;;;5031417;28;20440;-56
2024/01/29 08:19:09;;;;;;;14.70;5.50;;;;;;;;;;5033066;28;20027;-56
2024/01/29 08:21:34;;;;;;;13.18;5.25;;;;;;;;;;5033115;28;20096;-57
2024/01/29 08:23:59;;;;;;;14.87;5.67;;;;;;;;;;5033554;28;20021;-56
2024/01/29 08:26:26;;;;;;;14.83;5.40;;;;;;;;;;5020343;28;20033;-55
2024/01/29 08:28:51;;;;;;;12.93;5.18;;;;;;;;;;5028294;28;20017;-56
2024/01/29 08:31:16;;;;;;;12.67;5.23;;;;;;;;;;5023903;28;20030;-56
2024/01/29 08:33:42;;;;;;;15.82;5.55;;;;;;;;;;5028017;28;20342;-57
2024/01/29 08:36:07;;;;;;;14.82;5.05;;;;;;;;;;5032586;28;20021;-57
2024/01/29 08:38:32;;;;;;;16.27;5.70;;;;;;;;;;5027398;28;20041;-56
2024/01/29 08:40:58;;;;;;;15.37;4.97;;;;;;;;;;5022871;28;20029;-57
2024/01/29 08:43:23;;;;;;;11.82;5.10;;;;;;;;;;5031685;28;20436;-56
2024/01/29 08:45:49;;;;;;;16.02;5.25;;;;;;;;;;5030086;28;20523;-56
2024/01/29 08:48:14;;;;;;;12.17;5.13;;;;;;;;;;5032507;28;20021;-56
2024/01/29 08:50:39;;;;;;;12.07;4.97;;;;;;;;;;5030535;28;20017;-57
2024/01/29 08:53:04;;;;;;;11.67;4.90;;;;;;;;;;5031343;28;20013;-56
2024/01/29 08:55:32;;;;;;;12.90;4.97;;;;;;;;;;5032166;28;20385;-57
2024/01/29 08:57:57;;;;;;;12.70;5.03;;;;;;;;;;5032189;28;20573;-57
2024/01/29 09:00:22;;;;;;;11.02;4.95;;;;;;;;;;5030319;28;20117;-55
2024/01/29 09:02:48;;;;;;;12.10;4.87;;;;;;;;;;5031820;28;20420;-57
2024/01/29 09:05:13;;;;;;;12.13;4.78;;;;;;;;;;5031450;28;20460;-56
2024/01/29 09:07:38;;;;;;;12.33;4.80;;;;;;;;;;5030368;28;20045;-55
2024/01/29 09:10:04;;;;;;;14.52;5.43;;;;;;;;;;5030581;28;20101;-56
2024/01/29 09:12:29;;;;;;;13.70;5.35;;;;;;;;;;5030768;28;20025;-60
2024/01/29 09:14:54;;;;;;;11.83;4.90;;;;;;;;;;5030323;28;20037;-56
2024/01/29 09:17:19;;;;;;;13.88;5.20;;;;;;;;;;5032630;28;20014;-56
2024/01/29 09:19:45;;;;;;;14.87;5.27;;;;;;;;;;5033421;28;20183;-56
2024/01/29 09:22:10;;;;;;;13.88;4.90;;;;;;;;;;5033311;28;20048;-57
2024/01/29 09:24:35;;;;;;;12.05;4.70;;;;;;;;;;4995335;28;1009558;-57
2024/01/29 09:27:01;;;;;;;11.93;4.80;;;;;;;;;;5033167;28;20048;-57
2024/01/29 09:29:26;;;;;;;13.43;5.30;;;;;;;;;;5032658;28;20029;-57
2024/01/29 09:31:51;;;;;;;14.15;4.93;;;;;;;;;;5033845;28;20024;-56
2024/01/29 09:34:16;;;;;;;15.10;4.82;;;;;;;;;;5033530;28;20050;-56
2024/01/29 09:36:41;;;;;;;11.37;4.43;;;;;;;;;;5029018;28;20397;-58
2024/01/29 09:39:07;;;;;;;13.95;5.07;;;;;;;;;;5034756;28;20025;-56
2024/01/29 09:41:33;;;;;;;10.68;4.85;;;;;;;;;;5036317;28;20045;-57
2024/01/29 09:43:58;;;;;;;11.40;4.75;;;;;;;;;;5029860;28;20479;-56
2024/01/29 09:46:25;;;;;;;12.15;4.38;;;;;;;;;;5029857;28;20028;-58
2024/01/29 09:48:50;;;;;;;10.30;4.82;;;;;;;;;;5032804;28;20200;-57
2024/01/29 09:51:16;;;;;;;11.47;4.80;;;;;;;;;;5028286;28;20473;-56
2024/01/29 09:53:42;;;;;;;14.10;5.10;;;;;;;;;;5032647;28;20029;-57
2024/01/29 09:56:07;;;;;;;12.95;4.78;;;;;;;;;;5032465;28;20033;-56
2024/01/29 09:58:32;;;;;;;12.70;4.63;;;;;;;;;;5032387;28;20030;-56
2024/01/29 10:00:58;;;;;;;10.63;4.40;;;;;;;;;;5033147;28;20028;-56
2024/01/29 10:03:28;;;;;;;13.18;4.97;;;;;;;;;;5035714;28;20030;-59
2024/01/29 10:05:54;;;;;;;14.25;4.50;;;;;;;;;;5036827;28;20025;-57
2024/01/29 10:08:19;;;;;;;12.43;4.78;;;;;;;;;;5034065;28;20029;-57
2024/01/29 10:10:44;;;;;;;12.23;4.50;;;;;;;;;;5032924;28;20017;-56
2024/01/29 10:13:09;;;;;;;13.88;4.43;;;;;;;;;;5029176;28;20014;-56
2024/01/29 10:15:34;;;;;;;14.40;4.43;;;;;;;;;;5030914;28;20026;-55
2024/01/29 10:18:00;;;;;;;11.88;4.45;;;;;;;;;;5031736;28;20048;-56
2024/01/29 10:20:25;;;;;;;11.82;4.20;;;;;;;;;;5032243;28;20029;-57
2024/01/29 10:23:00;;;;;;;11.45;4.30;;;;;;;;;;5032490;28;20026;-56
2024/01/29 10:25:25;;;;;;;10.73;4.35;;;;;;;;;;5031910;28;20064;-56
2024/01/29 10:27:50;;;;;;;11.43;4.10;;;;;;;;;;5031195;28;20466;-57
2024/01/29 10:30:15;;;;;;;10.17;4.47;;;;;;;;;;5031131;28;20026;-56
2024/01/29 10:32:41;;;;;;;10.43;4.63;;;;;;;;;;5031082;28;20027;-56
2024/01/29 10:35:06;;;;;;;10.37;4.70;;;;;;;;;;5031469;28;20473;-56
2024/01/29 10:37:31;;;;;;;12.65;3.90;;;;;;;;;;5031935;28;20018;-58
2024/01/29 10:39:59;;;;;;;15.27;4.47;;;;;;;;;;5030697;28;20133;-56
2024/01/29 10:42:26;;;;;;;11.57;4.55;;;;;;;;;;5028219;28;20131;-57
2024/01/29 10:44:52;;;;;;;9.48;4.32;;;;;;;;;;5033995;28;20029;-56
2024/01/29 10:47:23;;;;;;;11.25;3.80;;;;;;;;;;5031991;28;20025;-57
2024/01/29 10:49:50;;;;;;;11.35;4.55;;;;;;;;;;5028830;28;20026;-56
2024/01/29 10:52:15;;;;;;;11.27;4.40;;;;;;;;;;5031720;28;20064;-56
2024/01/29 10:54:42;;;;;;;15.02;5.15;;;;;;;;;;5031461;28;20481;-57
2024/01/29 10:57:09;;;;;;;12.00;4.03;;;;;;;;;;5034825;28;20358;-56
2024/01/29 10:59:36;;;;;;;10.38;4.28;;;;;;;;;;5036217;28;20028;-56
2024/01/29 11:02:01;;;;;;;11.13;4.22;;;;;;;;;;5033313;28;20057;-57
2024/01/29 11:04:26;;;;;;;10.47;4.00;;;;;;;;;;5032841;28;20045;-59
2024/01/29 11:06:58;;;;;;;10.80;3.90;;;;;;;;;;5034673;28;20039;-58
2024/01/29 11:09:24;;;;;;;12.30;4.20;;;;;;;;;;5038186;28;20459;-57
2024/01/29 11:11:51;;;;;;;10.15;3.95;;;;;;;;;;5039797;28;20068;-58
2024/01/29 11:14:19;;;;;;;10.25;4.00;;;;;;;;;;5038508;28;20026;-57
2024/01/29 11:16:44;;;;;;;12.63;3.97;;;;;;;;;;5036090;28;20104;-57
2024/01/29 11:19:10;;;;;;;10.60;3.97;;;;;;;;;;5035354;28;20111;-57
2024/01/29 11:21:43;;;;;;;13.07;3.83;;;;;;;;;;5037252;28;20009;-57
2024/01/29 11:24:09;;;;;;;9.60;3.70;;;;;;;;;;5045797;28;20521;-57
2024/01/29 11:26:37;;;;;;;10.35;3.92;;;;;;;;;;5036133;28;20041;-58
2024/01/29 11:29:03;;;;;;;8.98;4.00;;;;;;;;;;5020156;28;20085;-57
2024/01/29 11:31:41;;;;;;;10.77;3.45;;;;;;;;;;5026980;28;20429;-56
2024/01/29 11:34:07;;;;;;;12.32;4.40;;;;;;;;;;5030595;28;20037;-57
2024/01/29 11:36:34;;;;;;;9.27;3.40;;;;;;;;;;5029947;28;20029;-56
2024/01/29 11:39:06;;;;;;;8.38;3.53;;;;;;;;;;5021866;28;20456;-57
2024/01/29 11:41:34;;;;;;;10.30;3.80;;;;;;;;;;5031178;28;20042;-56
2024/01/29 11:44:01;;;;;;;9.88;3.55;;;;;;;;;;5029831;28;20017;-56
2024/01/29 11:46:27;;;;;;;10.20;3.42;;;;;;;;;;5032313;28;20104;-57
2024/01/29 11:48:56;;;;;;;9.52;3.90;;;;;;;;;;5032028;28;20481;-56
2024/01/29 11:51:21;;;;;;;9.75;4.10;;;;;;;;;;5032765;28;20014;-57
2024/01/29 11:53:50;;;;;;;8.93;3.80;;;;;;;;;;5031819;28;20033;-56
2024/01/29 11:56:15;;;;;;;11.38;3.92;;;;;;;;;;5040867;28;20021;-58
2024/01/29 11:58:40;;;;;;;9.77;3.75;;;;;;;;;;5044253;28;20044;-57
2024/01/29 12:01:07;;;;;;;9.00;3.57;;;;;;;;;;5043204;28;20077;-56
2024/01/29 12:03:34;;;;;;;10.13;3.50;;;;;;;;;;5042988;28;20013;-57
2024/01/29 12:06:00;;;;;;;8.88;3.58;;;;;;;;;;5045027;28;20018;-57
2024/01/29 12:08:26;;;;;;;9.20;3.55;;;;;;;;;;5047969;28;20129;-56
2024/01/29 12:10:57;;;;;;;9.77;3.30;;;;;;;;;;5042053;28;20505;-57
2024/01/29 12:13:22;;;;;;;8.13;3.80;;;;;;;;;;5030138;28;20046;-58
2024/01/29 12:15:49;;;;;;;8.93;3.42;;;;;;;;;;5030516;28;20017;-56
2024/01/29 12:18:16;;;;;;;9.18;3.50;;;;;;;;;;5030386;28;20033;-57
2024/01/29 12:20:41;;;;;;;9.98;4.05;;;;;;;;;;5032772;28;20029;-57
2024/01/29 12:23:07;;;;;;;8.27;3.72;;;;;;;;;;5033821;28;20009;-57
2024/01/29 12:25:33;;;;;;;10.18;3.67;;;;;;;;;;5033970;28;20501;-58
2024/01/29 12:28:16;;;;;;;8.70;3.85;;;;;;;;;;5033833;28;20049;-57
2024/01/29 12:30:42;;;;;;;11.85;3.95;;;;;;;;;;5033709;28;20028;-57
2024/01/29 12:33:07;;;;;;;10.70;4.10;;;;;;;;;;5032842;28;20017;-57
2024/01/29 12:35:34;;;;;;;11.32;3.92;;;;;;;;;;5033945;28;20028;-58
2024/01/29 12:38:06;;;;;;;9.70;3.85;;;;;;;;;;5043361;28;20044;-58
2024/01/29 12:40:31;;;;;;;10.48;4.15;;;;;;;;;;5038471;28;20084;-58
2024/01/29 12:43:01;;;;;;;10.63;3.90;;;;;;;;;;5020965;28;20030;-57
2024/01/29 12:45:26;;;;;;;9.70;3.80;;;;;;;;;;5034308;28;20080;-56
2024/01/29 12:48:01;;;;;;;11.27;3.77;;;;;;;;;;5035176;28;20018;-56
2024/01/29 12:50:26;;;;;;;10.35;4.13;;;;;;;;;;5034433;28;20029;-57
2024/01/29 12:52:51;;;;;;;9.93;3.70;;;;;;;;;;5034531;28;20443;-56
2024/01/29 12:55:18;;;;;;;10.10;3.65;;;;;;;;;;5034254;28;20037;-57
2024/01/29 12:57:43;;;;;;;9.25;3.67;;;;;;;;;;5034143;28;20022;-57
2024/01/29 13:00:08;;;;;;;9.98;3.83;;;;;;;;;;5033615;28;20029;-57
2024/01/29 13:02:33;;;;;;;10.80;3.95;;;;;;;;;;5033346;28;20026;-57
2024/01/29 13:04:58;;;;;;;11.07;3.67;;;;;;;;;;5020946;28;20021;-56
2024/01/29 13:07:25;;;;;;;9.10;4.20;;;;;;;;;;5034916;28;20032;-57
2024/01/29 13:09:50;;;;;;;11.82;4.15;;;;;;;;;;5034304;28;20453;-57
2024/01/29 13:12:15;;;;;;;12.17;4.37;;;;;;;;;;5032227;28;20052;-58
2024/01/29 13:14:42;;;;;;;10.60;4.40;;;;;;;;;;5031445;28;20033;-57
2024/01/29 13:17:08;;;;;;;9.57;3.35;;;;;;;;;;5033171;28;20393;-57
2024/01/29 13:19:34;;;;;;;12.32;4.07;;;;;;;;;;5033317;28;20016;-56
2024/01/29 13:22:00;;;;;;;12.20;4.00;;;;;;;;;;5031699;28;20032;-56
2024/01/29 13:24:25;;;;;;;8.30;3.42;;;;;;;;;;5032503;28;20063;-57
2024/01/29 13:26:51;;;;;;;9.20;3.88;;;;;;;;;;5032863;28;20014;-56
2024/01/29 13:29:16;;;;;;;13.93;4.60;;;;;;;;;;5028949;28;20031;-57
2024/01/29 13:31:41;;;;;;;10.55;3.78;;;;;;;;;;5030060;28;20021;-56
2024/01/29 13:34:07;;;;;;;11.03;3.80;;;;;;;;;;5032303;28;20389;-56
2024/01/29 13:36:33;;;;;;;11.13;3.77;;;;;;;;;;5027671;28;20024;-57
2024/01/29 13:38:59;;;;;;;10.07;3.78;;;;;;;;;;5030696;28;20100;-57
2024/01/29 13:41:24;;;;;;;10.73;4.00;;;;;;;;;;5028804;28;20413;-56
2024/01/29 13:43:49;;;;;;;11.73;4.32;;;;;;;;;;5030205;28;20024;-56
2024/01/29 13:46:18;;;;;;;11.73;4.30;;;;;;;;;;5031743;28;20025;-57
2024/01/29 13:48:43;;;;;;;13.18;4.60;;;;;;;;;;5032366;28;20021;-57
2024/01/29 13:51:08;;;;;;;11.47;3.90;;;;;;;;;;5033405;28;20024;-57
2024/01/29 13:53:33;;;;;;;10.40;4.07;;;;;;;;;;5032503;28;20482;-57
2024/01/29 13:55:58;;;;;;;10.75;4.20;;;;;;;;;;5031047;28;20083;-57
2024/01/29 13:58:23;;;;;;;9.40;3.67;;;;;;;;;;5029954;28;20067;-55
2024/01/29 14:00:48;;;;;;;9.07;3.80;;;;;;;;;;5031275;28;20493;-56
2024/01/29 14:03:14;;;;;;;11.57;4.30;;;;;;;;;;5032805;28;20028;-56
2024/01/29 14:05:39;;;;;;;11.07;4.43;;;;;;;;;;5032541;28;20109;-58
2024/01/29 14:08:04;;;;;;;13.93;4.55;;;;;;;;;;5032860;28;20033;-57
2024/01/29 14:10:35;;;;;;;10.63;3.97;;;;;;;;;;5029778;28;20025;-57
2024/01/29 14:13:03;;;;;;;10.70;3.88;;;;;;;;;;5028184;28;20027;-56
2024/01/29 14:15:28;;;;;;;12.20;4.25;;;;;;;;;;5027378;28;20110;-57
2024/01/29 14:17:54;;;;;;;13.65;3.95;;;;;;;;;;5032116;28;20069;-56
2024/01/29 14:20:20;;;;;;;14.52;4.43;;;;;;;;;;5031932;28;20017;-55
2024/01/29 14:22:45;;;;;;;10.48;3.47;;;;;;;;;;5033057;28;20160;-56